Time;durP1;ratioP1;P1;durP2;ratioP2;P2;SDS_P1;SDS_P2;PMS_P1;PMS_P2;Temp;Humidity;BMP_temperature;BMP_pressure;BME280_temperature;BME280_humidity;BME280_pressure;Samples;Min_cycle;Max_cycle;Signal;HPM_P1;HPM_P2
2020/12/03 00:01:30;;;;;;;75.03;34.73;;;;;;;-4.42;68.55;99291.25;126006;1098;104494;-74
2020/12/03 00:04:03;;;;;;;75.30;35.50;;;;;;;-4.54;69.13;99293.97;126135;1093;104417;-74
2020/12/03 00:06:42;;;;;;;80.60;33.95;;;;;;;-4.69;68.99;99285.41;126097;1098;104913;-75
2020/12/03 00:09:13;;;;;;;88.03;39.67;;;;;;;-4.79;68.96;99286.34;126069;1098;104413;-76
2020/12/03 00:11:45;;;;;;;90.63;40.30;;;;;;;-4.81;69.09;99288.96;125860;1098;104898;-74
2020/12/03 00:14:12;;;;;;;79.60;36.90;;;;;;;-4.84;69.00;99286.38;125996;1098;104510;-74
2020/12/03 00:16:44;;;;;;;89.37;43.03;;;;;;;-4.86;69.21;99285.53;126026;1098;104522;-75
2020/12/03 00:19:13;;;;;;;88.80;42.15;;;;;;;-4.84;69.38;99288.98;127343;1098;104525;-74
2020/12/03 00:21:58;;;;;;;88.67;38.83;;;;;;;-4.83;69.49;99282.92;128167;1099;103214;-75
2020/12/03 00:24:30;;;;;;;79.17;36.53;;;;;;;-4.87;69.14;99282.93;125892;1100;104423;-74
2020/12/03 00:27:15;;;;;;;78.57;34.17;;;;;;;-4.96;69.05;99282.14;126031;1099;104420;-75
2020/12/03 00:29:42;;;;;;;90.43;40.70;;;;;;;-5.02;69.04;99270.92;126081;1098;104465;-75
2020/12/03 00:32:11;;;;;;;76.92;34.88;;;;;;;-4.99;69.43;99274.38;126057;1098;104510;-74
2020/12/03 00:34:40;;;;;;;81.53;36.50;;;;;;;-4.99;69.36;99284.75;126035;1098;104611;-75
2020/12/03 00:37:07;;;;;;;62.87;26.17;;;;;;;-5.02;69.32;99291.67;126048;1098;104471;-75
2020/12/03 00:39:34;;;;;;;79.85;39.45;;;;;;;-5.08;69.46;99289.98;126052;1098;104422;-75
2020/12/03 00:42:01;;;;;;;81.93;40.20;;;;;;;-5.00;69.31;99282.15;126010;1098;104573;-75
2020/12/03 00:44:28;;;;;;;81.00;38.53;;;;;;;-4.95;69.58;99276.08;126079;1098;104445;-75
2020/12/03 00:46:55;;;;;;;78.60;36.60;;;;;;;-4.89;69.64;99275.17;126042;1098;104648;-76
2020/12/03 00:49:22;;;;;;;71.43;33.53;;;;;;;-4.86;69.37;99264.77;126065;1098;104503;-75
2020/12/03 00:51:50;;;;;;;75.57;34.90;;;;;;;-4.82;69.59;99263.88;125865;1100;104589;-74
2020/12/03 00:54:17;;;;;;;72.80;31.87;;;;;;;-4.60;70.66;99261.11;126034;1098;104430;-74
2020/12/03 00:56:46;;;;;;;69.30;33.73;;;;;;;-4.31;70.33;99262.63;126092;1098;104424;-74
2020/12/03 00:59:13;;;;;;;72.13;33.97;;;;;;;-4.06;70.75;99262.37;126079;1098;104417;-75
2020/12/03 01:01:42;;;;;;;65.50;31.83;;;;;;;-3.90;70.73;99260.47;126168;1099;104475;-76
2020/12/03 01:04:08;;;;;;;68.40;33.83;;;;;;;-3.92;70.39;99264.83;126077;1098;104437;-75
2020/12/03 01:06:35;;;;;;;69.10;32.17;;;;;;;-3.85;69.64;99257.81;126127;1099;104872;-74
2020/12/03 01:09:04;;;;;;;69.82;33.18;;;;;;;-3.76;70.62;99258.59;126155;1098;104624;-75
2020/12/03 01:11:31;;;;;;;66.17;31.35;;;;;;;-3.71;70.02;99262.88;126011;1098;104522;-75
2020/12/03 01:13:58;;;;;;;70.60;31.73;;;;;;;-3.71;70.72;99258.53;126063;1098;104445;-75
2020/12/03 01:16:25;;;;;;;69.80;30.35;;;;;;;-3.67;69.95;99255.02;126045;1098;104669;-76
2020/12/03 01:18:51;;;;;;;65.13;31.43;;;;;;;-3.61;69.99;99254.95;126148;1098;104554;-74
2020/12/03 01:21:20;;;;;;;61.47;30.77;;;;;;;-3.70;69.80;99246.41;125919;1100;104426;-76
2020/12/03 01:23:50;;;;;;;54.80;28.90;;;;;;;-3.86;70.26;99237.89;125838;1101;104427;-75
2020/12/03 01:26:20;;;;;;;69.70;32.07;;;;;;;-4.00;69.97;99241.53;125764;1098;104554;-75
2020/12/03 01:28:48;;;;;;;63.27;30.70;;;;;;;-4.05;70.14;99241.56;128185;1099;102772;-76
2020/12/03 01:31:15;;;;;;;59.47;29.00;;;;;;;-4.10;70.01;99232.09;128046;1099;102465;-75
2020/12/03 01:33:43;;;;;;;60.93;29.93;;;;;;;-4.05;70.16;99235.52;126033;1098;104455;-76
2020/12/03 01:36:13;;;;;;;63.47;31.07;;;;;;;-3.99;69.96;99232.86;126036;1098;104497;-75
2020/12/03 01:38:43;;;;;;;62.30;30.27;;;;;;;-3.94;70.29;99217.20;126105;1098;104427;-75
2020/12/03 01:41:10;;;;;;;61.35;29.15;;;;;;;-4.00;70.04;99219.86;126655;1098;104388;-75
2020/12/03 01:43:44;;;;;;;63.40;30.13;;;;;;;-4.11;70.15;99215.67;125912;1099;104554;-74
2020/12/03 01:46:13;;;;;;;62.87;28.23;;;;;;;-4.22;69.48;99210.56;125977;1098;104881;-74
2020/12/03 01:49:00;;;;;;;58.73;29.50;;;;;;;-4.18;70.21;99198.41;126282;1098;104417;-74
2020/12/03 01:51:37;;;;;;;60.20;29.00;;;;;;;-4.06;70.78;99200.02;125859;1100;104531;-74
2020/12/03 01:54:10;;;;;;;62.30;30.20;;;;;;;-3.97;70.47;99199.92;125889;1101;104535;-73
2020/12/03 01:56:56;;;;;;;59.85;28.20;;;;;;;-4.02;69.86;99199.11;125959;1099;104611;-75
2020/12/03 01:59:26;;;;;;;57.90;28.57;;;;;;;-4.15;70.08;99198.39;126022;1098;104513;-75
2020/12/03 02:01:55;;;;;;;56.10;28.53;;;;;;;-4.20;70.18;99195.82;126115;1098;104490;-75
2020/12/03 02:04:23;;;;;;;49.67;23.87;;;;;;;-4.29;69.78;99200.26;126064;1098;104435;-74
2020/12/03 02:07:05;;;;;;;62.00;28.90;;;;;;;-4.41;69.67;99198.65;126335;1098;104465;-74
2020/12/03 02:09:32;;;;;;;59.40;28.57;;;;;;;-4.46;70.00;99197.83;126699;1099;104687;-73
2020/12/03 02:12:00;;;;;;;60.23;28.03;;;;;;;-4.44;70.32;99206.47;126044;1098;104528;-75
2020/12/03 02:14:27;;;;;;;55.27;26.07;;;;;;;-4.50;70.04;99208.23;125989;1098;104948;-74
2020/12/03 02:16:56;;;;;;;61.47;29.17;;;;;;;-4.56;70.00;99195.31;125871;1100;104452;-73
2020/12/03 02:19:30;;;;;;;55.47;27.70;;;;;;;-4.45;70.03;99194.36;126003;1098;106157;-74
2020/12/03 02:22:03;;;;;;;62.20;30.10;;;;;;;-4.30;70.24;99186.42;125960;1098;104439;-75
2020/12/03 02:24:39;;;;;;;56.77;28.70;;;;;;;-4.15;70.44;99185.40;125915;1100;104526;-75
2020/12/03 02:27:10;;;;;;;64.93;30.27;;;;;;;-3.94;70.31;99173.02;125976;1098;104475;-74
2020/12/03 02:29:37;;;;;;;59.30;29.65;;;;;;;-3.75;71.43;99173.66;126036;1098;104427;-75
2020/12/03 02:32:05;;;;;;;52.53;26.13;;;;;;;-3.64;70.54;99179.58;126037;1093;104420;-74
2020/12/03 02:34:33;;;;;;;54.73;27.23;;;;;;;-3.55;70.82;99167.34;126010;1098;104523;-75
2020/12/03 02:37:02;;;;;;;57.90;27.23;;;;;;;-3.45;70.33;99161.11;126009;1098;104489;-74
2020/12/03 02:39:31;;;;;;;61.73;29.77;;;;;;;-3.36;70.57;99160.98;126056;1098;104612;-74
2020/12/03 02:41:59;;;;;;;58.77;28.70;;;;;;;-3.28;70.86;99150.49;128145;1099;102525;-74
2020/12/03 02:44:26;;;;;;;61.97;28.67;;;;;;;-3.24;70.46;99139.13;126963;1098;103670;-75
2020/12/03 02:46:53;;;;;;;58.10;30.20;;;;;;;-3.24;70.16;99146.09;125953;1100;104564;-75
2020/12/03 02:49:20;;;;;;;51.95;26.25;;;;;;;-3.23;71.09;99140.84;126064;1098;104487;-75
2020/12/03 02:51:48;;;;;;;62.13;29.97;;;;;;;-3.19;71.14;99133.88;125835;1100;104932;-74
2020/12/03 02:54:15;;;;;;;57.60;29.35;;;;;;;-3.16;71.17;99136.42;126080;1098;104519;-75
2020/12/03 02:56:43;;;;;;;57.87;30.97;;;;;;;-3.17;70.02;99138.16;126043;1098;104439;-74
2020/12/03 02:59:10;;;;;;;56.20;28.53;;;;;;;-3.26;70.79;99147.85;126041;1098;104597;-76
2020/12/03 03:01:37;;;;;;;56.47;28.10;;;;;;;-3.35;70.12;99147.10;125779;1101;104484;-74
2020/12/03 03:04:06;;;;;;;59.03;28.30;;;;;;;-3.46;70.31;99135.98;125962;1098;104413;-73
2020/12/03 03:06:35;;;;;;;53.27;27.17;;;;;;;-3.68;69.68;99132.86;126121;1098;104842;-73
2020/12/03 03:09:05;;;;;;;57.53;28.07;;;;;;;-3.74;70.39;99124.26;126154;1098;104420;-73
2020/12/03 03:11:34;;;;;;;56.03;28.80;;;;;;;-3.80;70.39;99126.94;126174;1099;104465;-74
2020/12/03 03:14:04;;;;;;;56.60;28.43;;;;;;;-3.84;70.44;99138.25;126031;1098;104475;-74
2020/12/03 03:16:32;;;;;;;62.80;28.25;;;;;;;-3.77;70.32;99137.30;126087;1098;104522;-74
2020/12/03 03:19:00;;;;;;;58.10;26.83;;;;;;;-3.71;70.81;99136.34;126069;1098;104421;-74
2020/12/03 03:21:27;;;;;;;56.47;29.20;;;;;;;-3.74;70.47;99132.05;127085;1099;104420;-73
2020/12/03 03:23:54;;;;;;;57.85;27.45;;;;;;;-3.71;69.96;99125.94;126121;1099;104423;-73
2020/12/03 03:26:21;;;;;;;53.65;27.40;;;;;;;-3.66;70.96;99120.66;126021;1098;104494;-75
2020/12/03 03:28:49;;;;;;;54.37;27.60;;;;;;;-3.61;70.68;99118.86;126015;1100;104458;-73
2020/12/03 03:31:18;;;;;;;58.37;28.50;;;;;;;-3.60;70.01;99116.26;125996;1098;104478;-73
2020/12/03 03:33:47;;;;;;;56.80;26.00;;;;;;;-3.70;69.58;99113.82;126202;1098;104569;-73
2020/12/03 03:36:15;;;;;;;57.53;28.23;;;;;;;-3.79;70.51;99119.98;126542;1098;104514;-74
2020/12/03 03:38:42;;;;;;;51.80;26.17;;;;;;;-3.68;70.72;99125.91;127668;1098;104419;-74
2020/12/03 03:41:10;;;;;;;57.70;27.27;;;;;;;-3.61;70.28;99122.34;126236;1098;104440;-74
2020/12/03 03:43:38;;;;;;;50.80;25.10;;;;;;;-3.58;70.68;99118.83;126214;1098;104529;-73
2020/12/03 03:46:06;;;;;;;53.63;25.23;;;;;;;-3.57;69.95;99123.14;126234;1098;104420;-74
2020/12/03 03:48:33;;;;;;;53.00;26.33;;;;;;;-3.53;70.58;99118.78;125896;1098;104529;-72
2020/12/03 03:51:00;;;;;;;49.55;25.27;;;;;;;-3.50;70.95;99126.53;125901;1100;104480;-74
2020/12/03 03:53:27;;;;;;;53.97;24.97;;;;;;;-3.51;70.15;99133.46;125896;1101;104516;-74
2020/12/03 03:55:54;;;;;;;57.63;26.53;;;;;;;-3.48;71.13;99130.82;125961;1100;104528;-74
2020/12/03 03:58:21;;;;;;;54.93;28.37;;;;;;;-3.42;70.86;99132.45;126171;1098;104917;-73
2020/12/03 04:00:48;;;;;;;54.60;26.00;;;;;;;-3.36;70.23;99134.97;125994;1101;104538;-73
2020/12/03 04:03:20;;;;;;;51.50;26.70;;;;;;;-3.35;70.44;99139.30;126050;1098;104414;-73
2020/12/03 04:05:52;;;;;;;54.57;26.33;;;;;;;-3.45;70.90;99127.30;126036;1100;104901;-76
2020/12/03 04:08:22;;;;;;;54.77;27.43;;;;;;;-3.45;70.07;99130.78;126054;1098;104491;-73
2020/12/03 04:10:51;;;;;;;55.20;27.17;;;;;;;-3.43;70.01;99117.73;126041;1098;104528;-75
2020/12/03 04:13:21;;;;;;;53.80;27.77;;;;;;;-3.39;69.93;99115.97;126054;1098;104525;-75
2020/12/03 04:15:50;;;;;;;54.77;25.27;;;;;;;-3.55;69.75;99116.19;126054;1098;104445;-74
2020/12/03 04:18:18;;;;;;;52.10;28.37;;;;;;;-3.54;70.39;99117.06;126558;1098;104513;-75
2020/12/03 04:20:45;;;;;;;54.40;26.90;;;;;;;-3.49;70.40;99118.70;126070;1098;104449;-75
2020/12/03 04:23:12;;;;;;;56.10;26.57;;;;;;;-3.51;69.85;99122.22;126251;1098;104714;-75
2020/12/03 04:25:39;;;;;;;49.20;24.40;;;;;;;-3.52;70.00;99115.30;126167;1098;104561;-76
2020/12/03 04:28:06;;;;;;;49.53;25.23;;;;;;;-3.53;70.42;99113.58;126067;1098;104421;-75
2020/12/03 04:30:33;;;;;;;52.40;25.30;;;;;;;-3.47;70.22;99109.13;126242;1098;104486;-74
2020/12/03 04:33:00;;;;;;;49.07;24.63;;;;;;;-3.41;70.58;99096.92;126220;1098;105284;-75
2020/12/03 04:35:27;;;;;;;57.45;26.85;;;;;;;-3.37;70.59;99096.84;126197;1098;104531;-75
2020/12/03 04:37:54;;;;;;;51.17;25.33;;;;;;;-3.31;70.47;99090.70;125947;1099;104514;-75
2020/12/03 04:40:27;;;;;;;49.83;25.10;;;;;;;-3.32;70.08;99086.38;126048;1098;105029;-75
2020/12/03 04:42:57;;;;;;;52.90;26.23;;;;;;;-3.38;69.91;99081.27;125823;1100;104599;-77
2020/12/03 04:45:37;;;;;;;52.30;26.00;;;;;;;-3.46;70.38;99081.38;126062;1098;104481;-74
2020/12/03 04:48:50;;;;;;;50.50;24.90;;;;;;;-3.51;70.51;99083.20;125994;1098;104436;-75
2020/12/03 04:51:45;;;;;;;54.27;25.90;;;;;;;-3.47;70.66;99082.28;126092;1098;104449;-75
2020/12/03 04:54:35;;;;;;;52.43;26.90;;;;;;;-3.56;70.33;99072.02;126115;1098;104586;-75
2020/12/03 04:57:29;;;;;;;53.00;25.03;;;;;;;-3.60;70.64;99060.78;126097;1098;104426;-75
2020/12/03 05:00:07;;;;;;;51.25;26.20;;;;;;;-3.59;69.91;99065.98;126058;1098;104503;-78
2020/12/03 05:02:56;;;;;;;52.70;25.15;;;;;;;-3.51;70.30;99071.05;126035;1098;104522;-78
2020/12/03 05:05:32;;;;;;;55.00;27.77;;;;;;;-3.46;70.50;99073.56;126176;1098;104446;-76
2020/12/03 05:08:05;;;;;;;53.53;25.40;;;;;;;-3.48;70.91;99058.00;126206;1098;104414;-76
2020/12/03 05:10:45;;;;;;;50.80;24.43;;;;;;;-3.57;70.04;99057.30;126069;1098;104464;-75
2020/12/03 05:13:36;;;;;;;48.53;23.33;;;;;;;-3.56;70.36;99065.05;126079;1098;104442;-76
2020/12/03 05:16:26;;;;;;;49.13;23.50;;;;;;;-3.53;69.97;99059.81;125998;1093;104730;-75
2020/12/03 05:18:57;;;;;;;49.20;24.53;;;;;;;-3.54;70.84;99062.45;126028;1098;105007;-75
2020/12/03 05:21:28;;;;;;;49.00;22.87;;;;;;;-3.53;70.67;99065.02;126044;1098;104459;-75
2020/12/03 05:23:56;;;;;;;50.63;23.57;;;;;;;-3.53;70.49;99064.17;125839;1100;104483;-76
2020/12/03 05:26:31;;;;;;;47.73;24.10;;;;;;;-3.51;70.37;99070.20;126059;1100;104599;-76
2020/12/03 05:29:02;;;;;;;51.83;23.67;;;;;;;-3.48;70.99;99062.36;126024;1098;104634;-75
2020/12/03 05:31:36;;;;;;;54.17;25.03;;;;;;;-3.46;69.95;99052.77;126070;1098;104493;-76
2020/12/03 05:34:09;;;;;;;51.97;24.57;;;;;;;-3.48;70.26;99051.95;126151;1098;105092;-74
2020/12/03 05:36:40;;;;;;;51.53;24.90;;;;;;;-3.50;70.02;99051.97;125910;1101;104464;-75
2020/12/03 05:39:13;;;;;;;52.97;25.30;;;;;;;-3.52;70.70;99055.48;125877;1101;104683;-75
2020/12/03 05:41:47;;;;;;;53.37;24.30;;;;;;;-3.57;70.29;99049.49;126285;1098;104535;-74
2020/12/03 05:44:23;;;;;;;50.80;25.10;;;;;;;-3.57;69.95;99042.53;125829;1100;104491;-75
2020/12/03 05:46:52;;;;;;;50.93;25.40;;;;;;;-3.57;70.26;99041.69;126855;1098;104400;-76
2020/12/03 05:49:24;;;;;;;53.40;24.00;;;;;;;-3.55;70.34;99045.97;126002;1098;104437;-77
2020/12/03 05:52:26;;;;;;;52.03;24.33;;;;;;;-3.63;69.67;99040.91;126004;1098;104571;-76
2020/12/03 05:55:24;;;;;;;50.17;24.37;;;;;;;-3.84;70.11;99049.88;125721;1098;104423;-75
2020/12/03 05:57:51;;;;;;;51.07;24.30;;;;;;;-3.97;70.33;99046.59;125954;1098;104461;-76
2020/12/03 06:00:26;;;;;;;55.85;25.43;;;;;;;-4.01;70.03;99044.92;125915;1100;104586;-77
2020/12/03 06:02:53;;;;;;;57.33;27.20;;;;;;;-3.92;70.59;99047.40;127089;1099;102578;-76
2020/12/03 06:05:52;;;;;;;54.93;26.53;;;;;;;-3.84;70.84;99055.08;126040;1098;104487;-74
2020/12/03 06:08:34;;;;;;;56.23;26.67;;;;;;;-3.72;70.10;99051.43;125864;1100;104519;-76
2020/12/03 06:11:16;;;;;;;52.67;24.37;;;;;;;-3.62;70.21;99050.42;126108;1098;104577;-72
2020/12/03 06:13:57;;;;;;;56.57;26.77;;;;;;;-3.57;70.38;99052.94;125998;1099;104440;-73
2020/12/03 06:16:39;;;;;;;53.93;26.70;;;;;;;-3.60;70.07;99055.58;126051;1098;104984;-72
2020/12/03 06:19:31;;;;;;;58.70;26.07;;;;;;;-3.64;69.83;99052.18;126015;1098;104596;-74
2020/12/03 06:22:01;;;;;;;52.73;25.87;;;;;;;-3.65;70.31;99053.06;125984;1100;104580;-79
2020/12/03 06:24:41;;;;;;;57.93;26.37;;;;;;;-3.67;70.49;99051.38;125921;1100;104503;-74
2020/12/03 06:27:43;;;;;;;53.90;25.47;;;;;;;-3.70;69.79;99059.23;126072;1098;104855;-74
2020/12/03 06:30:18;;;;;;;55.00;24.40;;;;;;;-3.73;70.27;99041.91;125901;1101;104424;-74
2020/12/03 06:33:09;;;;;;;56.27;25.23;;;;;;;-3.78;70.17;99046.32;125911;1098;104689;-74
2020/12/03 06:35:58;;;;;;;58.63;28.33;;;;;;;-3.70;70.04;99043.63;126021;1098;104523;-75
2020/12/03 06:38:38;;;;;;;57.75;26.48;;;;;;;-3.57;70.44;99042.53;126071;1098;104528;-73
2020/12/03 06:41:23;;;;;;;54.97;26.77;;;;;;;-3.53;70.43;99036.41;126018;1098;104427;-73
2020/12/03 06:44:32;;;;;;;51.67;25.67;;;;;;;-3.52;70.47;99045.08;126158;1098;104500;-75
2020/12/03 06:47:19;;;;;;;51.37;24.83;;;;;;;-3.56;69.69;99046.86;126071;1098;104416;-73
2020/12/03 06:50:10;;;;;;;54.57;26.50;;;;;;;-3.75;70.59;99039.35;126066;1098;104413;-74
2020/12/03 06:53:14;;;;;;;52.63;24.60;;;;;;;-3.73;69.93;99039.31;126148;1098;104496;-72
2020/12/03 06:56:07;;;;;;;55.10;26.60;;;;;;;-3.71;70.15;99036.70;125936;1098;104554;-74
2020/12/03 06:59:12;;;;;;;54.87;26.60;;;;;;;-3.63;70.26;99034.83;126057;1098;104484;-74
2020/12/03 07:02:12;;;;;;;62.10;28.07;;;;;;;-3.59;70.32;99024.38;126065;1098;104446;-76
2020/12/03 07:04:42;;;;;;;56.73;27.97;;;;;;;-3.57;70.59;99023.49;126008;1098;104439;-77
2020/12/03 07:07:11;;;;;;;56.00;26.87;;;;;;;-3.58;70.68;99030.41;126039;1098;104891;-76
2020/12/03 07:10:03;;;;;;;59.07;28.53;;;;;;;-3.58;70.06;99025.22;126027;1100;104511;-75
2020/12/03 07:12:39;;;;;;;58.45;28.40;;;;;;;-3.54;70.06;99021.69;126035;1098;104943;-75
2020/12/03 07:15:52;;;;;;;57.77;28.10;;;;;;;-3.52;70.15;99014.72;126067;1098;104551;-75
2020/12/03 07:18:49;;;;;;;66.70;30.10;;;;;;;-3.47;70.79;99006.86;125937;1098;104605;-76
2020/12/03 07:21:16;;;;;;;83.85;38.17;;;;;;;-3.49;70.50;98999.07;126039;1098;104513;-73
2020/12/03 07:24:00;;;;;;;63.27;32.33;;;;;;;-3.41;70.29;99013.70;126049;1098;104461;-74
2020/12/03 07:26:30;;;;;;;;;;;;;;;-3.35;70.40;98997.98;126088;1098;104419;-74
2020/12/03 07:29:01;;;;;;;61.40;28.17;;;;;;;-3.32;70.93;99000.54;126032;1099;104923;-75
2020/12/03 07:31:36;;;;;;;60.73;28.03;;;;;;;-3.30;70.44;98997.02;125810;1100;104487;-73
2020/12/03 07:34:37;;;;;;;56.27;26.93;;;;;;;-3.27;71.02;98997.84;126315;1098;104439;-74
2020/12/03 07:37:22;;;;;;;60.03;27.77;;;;;;;-3.25;71.13;98983.91;126034;1099;105924;-75
2020/12/03 07:39:50;;;;;;;63.40;28.80;;;;;;;-3.21;71.19;98974.33;125901;1093;104519;-74
2020/12/03 07:42:20;;;;;;;62.67;31.20;;;;;;;-3.19;70.62;98978.61;128096;1093;103841;-75
2020/12/03 07:44:56;;;;;;;62.10;30.83;;;;;;;-3.19;70.25;98983.80;126100;1100;104481;-74
2020/12/03 07:47:51;;;;;;;64.73;30.40;;;;;;;-3.10;70.82;98990.61;126058;1098;104586;-72
2020/12/03 07:50:22;;;;;;;58.93;28.10;;;;;;;-2.98;71.43;98986.91;125978;1096;104526;-70
2020/12/03 07:53:15;;;;;;;62.90;29.37;;;;;;;-2.93;71.30;98971.20;126057;1098;104391;-74
2020/12/03 07:55:47;;;;;;;66.63;31.67;;;;;;;-2.93;70.22;98971.20;126090;1098;105055;-77
2020/12/03 07:58:42;;;;;;;91.50;45.33;;;;;;;-2.90;70.80;98981.55;126143;1098;104958;-74
2020/12/03 08:01:26;;;;;;;76.77;36.00;;;;;;;-2.82;70.43;98978.79;126180;1098;104894;-74
2020/12/03 08:04:22;;;;;;;70.60;31.30;;;;;;;-2.75;70.73;98972.58;126156;1098;104416;-71
2020/12/03 08:07:14;;;;;;;66.73;23.40;;;;;;;-2.64;70.56;98965.42;126144;1093;104485;-73
2020/12/03 08:09:45;;;;;;;61.17;28.33;;;;;;;-2.60;70.49;98966.20;126012;1098;104442;-73
2020/12/03 08:12:17;;;;;;;58.57;30.07;;;;;;;-2.49;70.73;98972.05;126090;1098;104583;-75
2020/12/03 08:14:57;;;;;;;54.60;26.47;;;;;;;-2.38;70.64;98969.21;126107;1093;104589;-73
2020/12/03 08:17:24;;;;;;;57.60;25.67;;;;;;;-2.47;70.24;98970.27;126003;1098;104449;-73
2020/12/03 08:19:57;;;;;;;55.33;27.35;;;;;;;-2.40;70.17;98969.26;126079;1098;104484;-78
2020/12/03 08:22:29;;;;;;;54.00;26.25;;;;;;;-2.38;70.29;98966.60;126084;1098;104413;-76
2020/12/03 08:25:05;;;;;;;58.47;28.63;;;;;;;-2.29;71.51;98969.02;126067;1099;104414;-73
2020/12/03 08:27:32;;;;;;;59.63;29.53;;;;;;;-2.15;70.71;98968.70;126157;1098;104519;-71
2020/12/03 08:29:59;;;;;;;52.43;25.85;;;;;;;-2.05;70.85;98968.51;126057;1098;104442;-72
2020/12/03 08:32:26;;;;;;;48.97;22.80;;;;;;;-2.00;71.36;98974.47;125900;1100;104493;-74
2020/12/03 08:34:53;;;;;;;55.73;27.90;;;;;;;-1.96;70.87;98968.30;126107;1098;104433;-74
2020/12/03 08:37:24;;;;;;;55.13;24.37;;;;;;;-1.89;71.86;98975.09;126055;1099;104423;-73
2020/12/03 08:39:55;;;;;;;55.87;26.63;;;;;;;-1.79;71.46;98967.91;126138;1093;104478;-72
2020/12/03 08:42:25;;;;;;;60.27;27.77;;;;;;;-1.75;71.70;98963.45;126027;1093;104538;-74
2020/12/03 08:44:53;;;;;;;53.97;25.20;;;;;;;-1.67;71.40;98958.91;126017;1093;104417;-72
2020/12/03 08:47:43;;;;;;;46.57;21.73;;;;;;;-1.56;70.68;98963.86;125851;1093;104490;-73
2020/12/03 08:50:17;;;;;;;56.13;25.23;;;;;;;-1.46;70.48;98964.51;126065;1093;104573;-72
2020/12/03 08:52:47;;;;;;;59.00;27.45;;;;;;;-1.40;70.79;98953.89;126013;1093;104598;-73
2020/12/03 09:21:36;;;;;;;43.17;20.53;;;;;;;-0.11;70.55;98940.69;126003;1102;104481;-72
2020/12/03 09:24:05;;;;;;;51.13;26.17;;;;;;;-0.14;70.80;98938.16;125877;1101;104487;-75
2020/12/03 09:26:33;;;;;;;54.10;27.15;;;;;;;-0.15;71.15;98928.61;125816;1096;104602;-72
2020/12/03 09:29:02;;;;;;;48.87;24.90;;;;;;;-0.10;71.27;98926.71;125823;1101;104548;-76
2020/12/03 09:31:35;;;;;;;52.10;26.50;;;;;;;-0.04;71.47;98926.52;125804;1102;105095;-74
2020/12/03 09:34:05;;;;;;;50.75;24.85;;;;;;;0.01;71.21;98913.29;125818;1101;104529;-73
2020/12/03 09:36:33;;;;;;;52.73;26.33;;;;;;;0.05;71.08;98912.29;125831;1102;104530;-72
2020/12/03 09:39:00;;;;;;;50.60;25.63;;;;;;;0.13;71.37;98906.83;125860;1101;104522;-72
2020/12/03 10:03:15;;;;;;;52.40;27.30;;;;;;;-0.20;71.34;98866.02;125770;1096;104595;-74
2020/12/03 10:06:01;;;;;;;63.60;32.67;;;;;;;-0.15;70.86;98873.70;126071;1101;104478;-73
2020/12/03 10:08:56;;;;;;;62.67;33.63;;;;;;;-0.13;71.34;98860.60;125728;1096;104458;-73
2020/12/03 10:11:36;;;;;;;68.90;32.50;;;;;;;-0.10;71.44;98858.73;125763;1101;104441;-73
2020/12/03 10:14:17;;;;;;;71.50;33.70;;;;;;;-0.08;70.82;98856.92;125796;1101;104439;-72
2020/12/03 10:16:45;;;;;;;66.13;33.57;;;;;;;-0.02;70.85;98851.49;125817;1103;104570;-72
2020/12/03 10:19:16;;;;;;;65.40;32.43;;;;;;;-0.02;70.83;98846.27;125919;1101;104411;-71
2020/12/03 10:21:51;;;;;;;66.43;32.37;;;;;;;-0.02;71.34;98853.27;125845;1101;104480;-73
2020/12/03 10:24:38;;;;;;;68.03;34.17;;;;;;;0.03;70.97;98846.09;125846;1102;104417;-73
2020/12/03 10:27:13;;;;;;;63.60;33.00;;;;;;;0.05;71.12;98846.06;125838;1096;104439;-72
2020/12/03 10:29:50;;;;;;;69.03;33.53;;;;;;;0.04;71.24;98845.20;125811;1101;104426;-74
2020/12/03 10:32:19;;;;;;;71.57;34.37;;;;;;;0.08;71.16;98843.34;125889;1101;105008;-74
2020/12/03 10:34:48;;;;;;;64.97;34.43;;;;;;;0.04;70.75;98836.52;125899;1096;104685;-72
2020/12/03 10:37:26;;;;;;;64.60;34.10;;;;;;;-0.02;71.54;98835.80;125783;1101;104509;-73
2020/12/03 10:40:08;;;;;;;71.57;34.47;;;;;;;-0.04;71.19;98839.39;125909;1102;104451;-72
2020/12/03 10:42:40;;;;;;;63.50;31.90;;;;;;;-0.04;70.97;98842.84;125833;1101;104421;-72
2020/12/03 10:45:14;;;;;;;69.33;35.37;;;;;;;0.03;70.80;98819.11;125763;1101;104407;-69
2020/12/03 10:47:48;;;;;;;70.40;36.30;;;;;;;0.17;71.25;98821.25;125821;1101;104576;-73
2020/12/03 10:50:18;;;;;;;67.30;34.70;;;;;;;0.33;71.40;98819.83;125864;1101;104478;-72
2020/12/03 10:52:46;;;;;;;65.03;34.40;;;;;;;0.51;71.32;98820.07;125845;1102;104434;-72
2020/12/03 10:55:18;;;;;;;65.60;33.05;;;;;;;0.62;71.20;98817.93;125831;1101;104442;-72
2020/12/03 10:57:55;;;;;;;70.60;34.50;;;;;;;0.69;71.49;98816.80;125858;1102;104519;-74
2020/12/03 11:00:24;;;;;;;62.43;33.57;;;;;;;0.76;71.49;98824.44;125836;1101;104743;-73
2020/12/03 11:02:52;;;;;;;61.90;31.20;;;;;;;0.86;71.10;98810.08;125785;1102;105003;-73
2020/12/03 11:05:19;;;;;;;62.60;33.63;;;;;;;1.00;71.16;98814.83;125845;1101;104417;-73
2020/12/03 11:07:54;;;;;;;58.47;29.70;;;;;;;1.05;71.12;98810.23;125815;1101;104485;-73
2020/12/03 11:10:23;;;;;;;66.20;33.37;;;;;;;1.10;71.51;98821.41;125886;1101;104477;-73
2020/12/03 11:12:55;;;;;;;64.33;33.90;;;;;;;1.08;71.39;98812.74;125917;1101;104547;-73
2020/12/03 11:15:24;;;;;;;67.93;35.50;;;;;;;1.07;71.25;98805.80;125757;1096;104952;-73
2020/12/03 11:18:03;;;;;;;60.63;30.33;;;;;;;1.04;70.62;98806.78;125791;1097;104420;-72
2020/12/03 11:20:59;;;;;;;62.77;32.00;;;;;;;1.01;70.99;98803.44;125808;1101;104608;-72
2020/12/03 11:23:30;;;;;;;64.03;34.50;;;;;;;0.92;71.03;98804.61;125932;1096;104529;-71
2020/12/03 11:26:06;;;;;;;64.87;35.40;;;;;;;0.92;71.14;98809.02;125891;1103;104691;-74
2020/12/03 11:28:37;;;;;;;65.40;33.87;;;;;;;0.91;71.51;98802.06;125843;1096;104416;-73
2020/12/03 11:31:10;;;;;;;70.90;37.50;;;;;;;0.91;71.14;98799.45;125844;1097;104452;-74
2020/12/03 11:33:42;;;;;;;67.85;35.63;;;;;;;0.93;71.23;98798.47;125827;1096;104485;-73
2020/12/03 11:36:16;;;;;;;69.97;35.83;;;;;;;0.96;71.51;98789.66;125805;1101;104411;-72
2020/12/03 11:38:53;;;;;;;67.53;33.10;;;;;;;0.94;71.37;98796.72;125831;1096;104443;-71
2020/12/03 11:41:32;;;;;;;67.20;35.00;;;;;;;0.92;71.35;98802.00;125766;1097;104454;-72
2020/12/03 11:49:28;;;;;;;65.43;33.80;;;;;;;0.89;70.78;98783.77;125798;1096;104504;-72
2020/12/03 11:52:18;;;;;;;69.47;34.17;;;;;;;0.87;71.28;98780.36;125795;1096;104547;-72
2020/12/03 11:54:47;;;;;;;67.13;35.07;;;;;;;0.85;70.77;98771.70;125789;1097;104481;-74
2020/12/03 11:57:14;;;;;;;65.10;33.67;;;;;;;0.79;70.91;98759.71;125815;1096;104419;-74
2020/12/03 11:59:42;;;;;;;63.90;32.35;;;;;;;0.77;70.84;98752.84;125847;1101;104949;-75
2020/12/03 12:02:10;;;;;;;65.60;32.77;;;;;;;0.72;70.92;98751.24;125830;1101;104472;-75
2020/12/03 12:07:32;;;;;;;65.10;33.67;;;;;;;0.64;71.12;98748.05;125776;1096;105044;-73
2020/12/03 12:12:32;;;;;;;64.27;33.20;;;;;;;0.60;71.00;98738.61;125851;1101;104485;-75
2020/12/03 12:14:59;;;;;;;63.40;31.93;;;;;;;0.60;70.88;98743.84;125866;1096;104608;-73
2020/12/03 12:17:30;;;;;;;63.60;30.63;;;;;;;0.59;70.82;98745.63;125837;1101;103310;-73
2020/12/03 12:20:00;;;;;;;61.63;30.57;;;;;;;0.59;70.89;98739.52;125894;1102;104421;-75
2020/12/03 12:22:28;;;;;;;61.00;31.37;;;;;;;0.61;70.98;98736.86;125887;1101;104487;-75
2020/12/03 12:24:55;;;;;;;59.57;29.83;;;;;;;0.65;70.72;98739.29;125886;1101;104462;-73
2020/12/03 12:27:23;;;;;;;60.63;31.07;;;;;;;0.74;71.29;98740.70;125855;1103;104977;-74
2020/12/03 12:29:51;;;;;;;66.07;31.77;;;;;;;0.79;70.89;98735.31;125911;1101;104554;-75
2020/12/03 12:32:19;;;;;;;59.10;31.00;;;;;;;0.84;70.95;98733.34;125853;1101;104491;-74
2020/12/03 12:34:49;;;;;;;64.50;30.90;;;;;;;0.92;71.14;98735.69;125926;1101;104918;-75